createdAt,value
2017-08-20T00:00:10.126Z,0
2017-08-20T00:01:10.178Z,0
2017-08-20T00:02:09.940Z,0
2017-08-20T00:03:10.321Z,0
2017-08-20T00:04:10.048Z,0
2017-08-20T00:05:10.102Z,0
2017-08-20T00:06:10.451Z,0
2017-08-20T00:07:10.526Z,0
2017-08-20T00:08:10.572Z,0
2017-08-20T00:09:10.320Z,0
2017-08-20T00:10:10.699Z,0
2017-08-20T00:11:10.741Z,0
2017-08-20T00:12:10.492Z,0
2017-08-20T00:13:10.857Z,0
2017-08-20T00:14:10.909Z,0
2017-08-20T00:15:10.962Z,0
2017-08-20T00:16:11.049Z,0
2017-08-20T00:17:11.071Z,0
2017-08-20T00:18:10.827Z,0
2017-08-20T00:19:11.186Z,0
2017-08-20T00:20:11.253Z,0
2017-08-20T00:21:11.290Z,0
2017-08-20T00:22:11.058Z,0
2017-08-20T00:23:11.412Z,0
2017-08-20T00:24:11.463Z,0
2017-08-20T00:25:11.534Z,0
2017-08-20T00:26:11.270Z,0
2017-08-20T00:27:11.635Z,0
2017-08-20T00:28:11.684Z,0
2017-08-20T00:29:11.440Z,0
2017-08-20T00:30:11.508Z,0
2017-08-20T00:31:11.861Z,0
2017-08-20T00:32:11.941Z,0
2017-08-20T00:33:11.969Z,0
2017-08-20T00:34:12.043Z,0
2017-08-20T00:35:12.078Z,0
2017-08-20T00:36:12.149Z,0
2017-08-20T00:37:12.198Z,0
2017-08-20T00:38:11.943Z,0
2017-08-20T00:39:12.301Z,0
2017-08-20T00:40:12.359Z,0
2017-08-20T00:41:12.109Z,0
2017-08-20T00:42:12.495Z,0
2017-08-20T00:43:12.230Z,0
2017-08-20T00:44:12.578Z,0
2017-08-20T00:45:12.640Z,0
2017-08-20T00:46:12.696Z,0
2017-08-20T00:47:12.754Z,0
2017-08-20T00:48:12.822Z,0
2017-08-20T00:49:12.865Z,0
2017-08-20T00:50:12.931Z,0
2017-08-20T00:51:12.964Z,0
2017-08-20T00:52:13.022Z,0
2017-08-20T00:53:13.082Z,0
2017-08-20T00:54:13.137Z,0
2017-08-20T00:55:13.200Z,0
2017-08-20T00:56:12.949Z,0
2017-08-20T00:57:13.307Z,0
2017-08-20T00:58:13.071Z,0
2017-08-20T00:59:13.124Z,0
2017-08-20T01:00:13.173Z,0
2017-08-20T01:01:13.522Z,0
2017-08-20T01:02:13.585Z,0
2017-08-20T01:03:13.650Z,0
2017-08-20T01:04:13.402Z,0
2017-08-20T01:05:13.755Z,0
2017-08-20T01:06:13.816Z,0
2017-08-20T01:07:13.877Z,0
2017-08-20T01:08:13.928Z,0
2017-08-20T01:09:13.988Z,0
2017-08-20T01:10:14.033Z,0
2017-08-20T01:11:14.084Z,0
2017-08-20T01:12:14.154Z,0
2017-08-20T01:13:14.211Z,0
2017-08-20T01:14:14.265Z,0
2017-08-20T01:15:14.310Z,0
2017-08-20T01:16:14.373Z,0
2017-08-20T01:17:14.425Z,0
2017-08-20T01:18:14.488Z,0
2017-08-20T01:19:14.534Z,0
2017-08-20T01:20:14.595Z,0
2017-08-20T01:21:14.639Z,0
2017-08-20T01:22:14.698Z,0
2017-08-20T01:23:14.762Z,0
2017-08-20T01:24:14.814Z,0
2017-08-20T01:25:14.873Z,0
2017-08-20T01:26:14.933Z,0
2017-08-20T01:27:14.985Z,0
2017-08-20T01:28:14.739Z,0
2017-08-20T01:29:14.782Z,0
2017-08-20T01:30:15.149Z,0
2017-08-20T01:31:15.211Z,0
2017-08-20T01:32:15.258Z,0
2017-08-20T01:33:15.008Z,0
2017-08-20T01:34:15.379Z,0
2017-08-20T01:35:15.428Z,0
2017-08-20T01:36:15.484Z,0
2017-08-20T01:37:15.535Z,0
2017-08-20T01:38:15.595Z,0
2017-08-20T01:39:15.660Z,0
2017-08-20T01:40:15.701Z,0
2017-08-20T01:41:15.787Z,0
2017-08-20T01:42:15.812Z,0
2017-08-20T01:43:15.879Z,0
2017-08-20T01:44:15.930Z,0
2017-08-20T01:45:15.683Z,0
2017-08-20T01:46:16.039Z,0
2017-08-20T01:47:16.097Z,0
2017-08-20T01:48:16.143Z,0
2017-08-20T01:49:16.212Z,0
2017-08-20T01:50:16.258Z,0
2017-08-20T01:51:16.330Z,0
2017-08-20T01:52:16.377Z,0
2017-08-20T01:53:16.433Z,0
2017-08-20T01:54:16.481Z,0
2017-08-20T01:55:16.548Z,0
2017-08-20T01:56:16.599Z,0
2017-08-20T01:57:16.652Z,0
2017-08-20T01:58:16.401Z,0
2017-08-20T01:59:16.764Z,0
2017-08-20T02:00:16.818Z,0
2017-08-20T02:01:16.572Z,0
2017-08-20T02:02:16.952Z,0
2017-08-20T02:03:16.990Z,0
2017-08-20T02:04:17.042Z,0
2017-08-20T02:05:17.105Z,0
2017-08-20T02:06:16.846Z,0
2017-08-20T02:07:17.215Z,0
2017-08-20T02:08:17.269Z,0
2017-08-20T02:09:17.319Z,0
2017-08-20T02:10:17.304Z,0
2017-08-20T02:11:17.445Z,0
2017-08-20T02:12:17.485Z,0
2017-08-20T02:13:17.547Z,0
2017-08-20T02:14:17.607Z,0
2017-08-20T02:15:17.695Z,0
2017-08-20T02:16:17.712Z,0
2017-08-20T02:17:17.766Z,0
2017-08-20T02:18:17.830Z,0
2017-08-20T02:19:17.877Z,0
2017-08-20T02:20:17.940Z,0
2017-08-20T02:21:17.992Z,0
2017-08-20T02:22:18.054Z,0
2017-08-20T02:23:18.162Z,0
2017-08-20T02:24:18.158Z,0
2017-08-20T02:25:18.221Z,0
2017-08-20T02:26:18.268Z,0
2017-08-20T02:27:18.328Z,0
2017-08-20T02:28:18.374Z,0
2017-08-20T02:29:18.445Z,0
2017-08-20T02:30:18.493Z,0
2017-08-20T02:31:18.541Z,0
2017-08-20T02:32:18.599Z,0
2017-08-20T02:33:18.651Z,0
2017-08-20T02:34:18.734Z,0
2017-08-20T02:35:18.782Z,0
2017-08-20T02:36:19.039Z,0
2017-08-20T02:37:18.901Z,0
2017-08-20T02:38:18.935Z,0
2017-08-20T02:39:18.686Z,0
2017-08-20T02:40:19.247Z,0
2017-08-20T02:41:19.097Z,0
2017-08-20T02:42:18.861Z,0
2017-08-20T02:43:19.224Z,0
2017-08-20T02:44:19.274Z,0
2017-08-20T02:45:19.222Z,0
2017-08-20T02:46:19.088Z,0
2017-08-20T02:47:19.445Z,0
2017-08-20T02:48:19.496Z,0
2017-08-20T02:49:19.561Z,0
2017-08-20T02:50:19.304Z,0
2017-08-20T02:51:19.695Z,0
2017-08-20T02:52:19.714Z,0
2017-08-20T02:53:19.773Z,0
2017-08-20T02:54:19.838Z,0
2017-08-20T02:55:19.885Z,0
2017-08-20T02:56:19.941Z,0
2017-08-20T02:57:20.013Z,0
2017-08-20T02:58:20.048Z,0
2017-08-20T02:59:20.110Z,0
2017-08-20T03:00:20.162Z,0
2017-08-20T03:01:20.232Z,0
2017-08-20T03:02:20.282Z,0
2017-08-20T03:03:20.332Z,0
2017-08-20T03:04:20.385Z,0
2017-08-20T03:05:20.434Z,0
2017-08-20T03:06:20.499Z,0
2017-08-20T03:07:20.561Z,0
2017-08-20T03:08:20.600Z,0
2017-08-20T03:09:20.657Z,0
2017-08-20T03:10:20.722Z,0
2017-08-20T03:11:20.778Z,0
2017-08-20T03:12:20.824Z,0
2017-08-20T03:13:20.886Z,0
2017-08-20T03:14:21.172Z,0
2017-08-20T03:15:20.996Z,0
2017-08-20T03:16:21.059Z,0
2017-08-20T03:17:20.812Z,0
2017-08-20T03:18:20.858Z,0
2017-08-20T03:19:34.572Z,0
2017-08-20T03:20:21.176Z,0
2017-08-20T03:21:21.333Z,0
2017-08-20T03:22:21.396Z,0
2017-08-20T03:23:21.442Z,0
2017-08-20T03:24:21.509Z,0
2017-08-20T03:25:21.555Z,0
2017-08-20T03:26:21.620Z,0
2017-08-20T03:27:21.669Z,0
2017-08-20T03:28:21.728Z,0
2017-08-20T03:29:21.790Z,0
2017-08-20T03:30:21.838Z,0
2017-08-20T03:31:21.895Z,0
2017-08-20T03:32:21.944Z,0
2017-08-20T03:33:22.001Z,0
2017-08-20T03:34:22.059Z,0
2017-08-20T03:35:21.801Z,0
2017-08-20T03:36:22.173Z,0
2017-08-20T03:37:22.227Z,0
2017-08-20T03:38:22.279Z,0
2017-08-20T03:39:22.328Z,0
2017-08-20T03:40:22.397Z,0
2017-08-20T03:41:22.440Z,0
2017-08-20T03:42:22.202Z,0
2017-08-20T03:43:22.266Z,0
2017-08-20T03:44:22.628Z,0
2017-08-20T03:45:22.878Z,0
2017-08-20T03:47:22.787Z,0
2017-08-20T03:48:22.531Z,0
2017-08-20T03:49:23.090Z,0
2017-08-20T03:50:22.939Z,0
2017-08-20T03:51:23.004Z,0
2017-08-20T03:52:23.058Z,0
2017-08-20T03:53:23.118Z,0
2017-08-20T03:54:23.182Z,0
2017-08-20T03:55:23.228Z,0
2017-08-20T03:56:23.282Z,0
2017-08-20T03:57:23.344Z,0
2017-08-20T03:58:23.397Z,0
2017-08-20T03:59:22.840Z,0
2017-08-20T04:00:23.512Z,0
2017-08-20T04:01:23.566Z,0
2017-08-20T04:02:23.615Z,0
2017-08-20T04:03:23.670Z,0
2017-08-20T04:04:23.424Z,0
2017-08-20T04:05:23.796Z,0
2017-08-20T04:06:23.842Z,0
2017-08-20T04:07:23.882Z,0
2017-08-20T04:08:23.641Z,0
2017-08-20T04:09:23.700Z,0
2017-08-20T04:10:24.060Z,0
2017-08-20T04:11:23.814Z,0
2017-08-20T04:12:23.868Z,0
2017-08-20T04:13:24.230Z,0
2017-08-20T04:14:24.285Z,0
2017-08-20T04:15:24.345Z,0
2017-08-20T04:16:24.401Z,0
2017-08-20T04:17:24.452Z,0
2017-08-20T04:18:24.508Z,0
2017-08-20T04:19:24.557Z,4
2017-08-20T04:20:24.625Z,4
2017-08-20T04:21:24.670Z,4
2017-08-20T04:22:24.422Z,4
2017-08-20T04:23:24.993Z,4
2017-08-20T04:24:24.828Z,4
2017-08-20T04:25:25.317Z,4
2017-08-20T04:26:24.951Z,4
2017-08-20T04:27:25.002Z,4
2017-08-20T04:28:38.712Z,0
2017-08-20T04:29:25.111Z,4
2017-08-20T04:30:25.170Z,4
2017-08-20T04:31:25.231Z,4
2017-08-20T04:32:25.285Z,4
2017-08-20T04:33:25.336Z,4
2017-08-20T04:34:25.106Z,4
2017-08-20T04:35:25.454Z,8
2017-08-20T04:36:25.497Z,8
2017-08-20T04:37:25.553Z,8
2017-08-20T04:38:25.622Z,4
2017-08-20T04:39:25.668Z,8
2017-08-20T04:40:25.725Z,12
2017-08-20T04:41:25.776Z,8
2017-08-20T04:42:25.838Z,8
2017-08-20T04:43:25.895Z,12
2017-08-20T04:44:25.948Z,8
2017-08-20T04:45:25.703Z,8
2017-08-20T04:46:26.061Z,12
2017-08-20T04:47:26.119Z,16
2017-08-20T04:48:26.172Z,16
2017-08-20T04:49:26.238Z,16
2017-08-20T04:50:26.282Z,16
2017-08-20T04:51:26.340Z,16
2017-08-20T04:52:26.394Z,20
2017-08-20T04:53:26.689Z,24
2017-08-20T04:54:26.508Z,28
2017-08-20T04:55:26.570Z,28
2017-08-20T04:56:26.616Z,36
2017-08-20T04:57:26.374Z,36
2017-08-20T04:58:26.946Z,32
2017-08-20T04:59:26.486Z,40
2017-08-20T05:00:26.546Z,44
2017-08-20T05:01:26.894Z,40
2017-08-20T05:02:26.949Z,36
2017-08-20T05:03:27.006Z,32
2017-08-20T05:04:27.067Z,32
2017-08-20T05:05:27.113Z,24
2017-08-20T05:06:27.177Z,24
2017-08-20T05:07:27.228Z,32
2017-08-20T05:08:27.280Z,32
2017-08-20T05:09:27.339Z,36
2017-08-20T05:10:27.398Z,36
2017-08-20T05:11:27.454Z,36
2017-08-20T05:12:27.497Z,40
2017-08-20T05:13:27.571Z,40
2017-08-20T05:14:27.628Z,40
2017-08-20T05:15:27.676Z,40
2017-08-20T05:16:27.730Z,44
2017-08-20T05:17:27.777Z,44
2017-08-20T05:18:27.842Z,48
2017-08-20T05:19:27.595Z,52
2017-08-20T05:20:27.648Z,48
2017-08-20T05:21:28.003Z,52
2017-08-20T05:22:28.071Z,56
2017-08-20T05:23:28.130Z,64
2017-08-20T05:24:27.870Z,56
2017-08-20T05:25:27.624Z,56
2017-08-20T05:26:28.278Z,52
2017-08-20T05:27:27.731Z,48
2017-08-20T05:28:28.396Z,56
2017-08-20T05:29:28.451Z,64
2017-08-20T05:30:28.513Z,80
2017-08-20T05:31:28.567Z,84
2017-08-20T05:32:28.613Z,92
2017-08-20T05:33:28.679Z,104
2017-08-20T05:34:28.732Z,108
2017-08-20T05:35:28.793Z,116
2017-08-20T05:36:28.534Z,128
2017-08-20T05:37:28.888Z,116
2017-08-20T05:38:28.947Z,120
2017-08-20T05:39:28.707Z,132
2017-08-20T05:40:29.064Z,144
2017-08-20T05:41:28.808Z,164
2017-08-20T05:42:29.171Z,172
2017-08-20T05:43:29.239Z,176
2017-08-20T05:44:29.294Z,184
2017-08-20T05:45:29.336Z,168
2017-08-20T05:46:29.390Z,136
2017-08-20T05:47:29.155Z,124
2017-08-20T05:48:29.504Z,132
2017-08-20T05:49:29.554Z,144
2017-08-20T05:50:29.616Z,216
2017-08-20T05:51:29.669Z,244
2017-08-20T05:52:29.422Z,268
2017-08-20T05:53:29.778Z,244
2017-08-20T05:54:29.844Z,232
2017-08-20T05:55:29.905Z,168
2017-08-20T05:56:29.961Z,168
2017-08-20T05:57:30.009Z,160
2017-08-20T05:58:30.076Z,164
2017-08-20T05:59:29.823Z,172
2017-08-20T06:00:30.175Z,176
2017-08-20T06:01:30.241Z,172
2017-08-20T06:02:30.291Z,180
2017-08-20T06:03:30.342Z,184
2017-08-20T06:04:30.400Z,196
2017-08-20T06:05:30.449Z,212
2017-08-20T06:06:30.510Z,212
2017-08-20T06:07:30.258Z,212
2017-08-20T06:08:30.620Z,216
2017-08-20T06:09:30.684Z,204
2017-08-20T06:10:30.753Z,228
2017-08-20T06:11:30.782Z,232
2017-08-20T06:12:30.541Z,232
2017-08-20T06:13:30.900Z,180
2017-08-20T06:14:30.952Z,140
2017-08-20T06:15:31.013Z,136
2017-08-20T06:16:30.760Z,140
2017-08-20T06:17:30.815Z,148
2017-08-20T06:18:31.184Z,140
2017-08-20T06:19:31.243Z,144
2017-08-20T06:20:31.299Z,156
2017-08-20T06:21:31.342Z,192
2017-08-20T06:22:31.398Z,172
2017-08-20T06:23:31.150Z,180
2017-08-20T06:24:31.502Z,188
2017-08-20T06:25:31.573Z,188
2017-08-20T06:26:31.620Z,180
2017-08-20T06:27:31.689Z,184
2017-08-20T06:28:31.735Z,212
2017-08-20T06:29:31.791Z,224
2017-08-20T06:30:31.843Z,216
2017-08-20T06:31:31.910Z,196
2017-08-20T06:32:31.954Z,212
2017-08-20T06:33:32.009Z,220
2017-08-20T06:34:32.072Z,220
2017-08-20T06:35:31.822Z,244
2017-08-20T06:36:31.874Z,268
2017-08-20T06:37:32.239Z,252
2017-08-20T06:38:32.283Z,216
2017-08-20T06:39:32.038Z,172
2017-08-20T06:40:32.092Z,172
2017-08-20T06:41:32.156Z,176
2017-08-20T06:42:32.209Z,196
2017-08-20T06:43:32.571Z,188
2017-08-20T06:44:32.616Z,188
2017-08-20T06:45:32.679Z,184
2017-08-20T06:46:32.737Z,204
2017-08-20T06:47:32.481Z,236
2017-08-20T06:48:32.850Z,248
2017-08-20T06:49:32.903Z,244
2017-08-20T06:50:32.959Z,236
2017-08-20T06:51:33.008Z,228
2017-08-20T06:52:33.102Z,220
2017-08-20T06:53:33.135Z,232
2017-08-20T06:54:33.178Z,232
2017-08-20T06:55:33.231Z,276
2017-08-20T06:56:33.291Z,264
2017-08-20T06:57:33.341Z,240
2017-08-20T06:58:33.408Z,248
2017-08-20T06:59:33.458Z,252
2017-08-20T07:00:33.516Z,328
2017-08-20T07:01:33.565Z,372
2017-08-20T07:02:33.615Z,356
2017-08-20T07:03:33.689Z,300
2017-08-20T07:04:33.724Z,368
2017-08-20T07:05:33.494Z,396
2017-08-20T07:06:33.538Z,380
2017-08-20T07:07:33.598Z,352
2017-08-20T07:08:33.957Z,348
2017-08-20T07:09:34.011Z,308
2017-08-20T07:10:33.774Z,252
2017-08-20T07:11:34.123Z,188
2017-08-20T07:12:34.219Z,144
2017-08-20T07:13:34.240Z,112
2017-08-20T07:14:34.301Z,92
2017-08-20T07:15:34.346Z,84
2017-08-20T07:16:34.090Z,84
2017-08-20T07:17:34.154Z,96
2017-08-20T07:18:34.211Z,108
2017-08-20T07:19:34.269Z,120
2017-08-20T07:20:34.319Z,124
2017-08-20T07:21:34.672Z,132
2017-08-20T07:22:34.738Z,120
2017-08-20T07:23:34.495Z,132
2017-08-20T07:24:34.549Z,136
2017-08-20T07:25:34.592Z,148
2017-08-20T07:26:34.962Z,156
2017-08-20T07:27:35.010Z,156
2017-08-20T07:28:35.077Z,196
2017-08-20T07:29:35.126Z,196
2017-08-20T07:30:35.180Z,164
2017-08-20T07:31:35.234Z,140
2017-08-20T07:32:35.292Z,136
2017-08-20T07:33:35.340Z,136
2017-08-20T07:34:35.095Z,144
2017-08-20T07:35:35.466Z,148
2017-08-20T07:36:35.520Z,180
2017-08-20T07:37:35.583Z,212
2017-08-20T07:38:35.331Z,232
2017-08-20T07:39:35.686Z,276
2017-08-20T07:40:35.745Z,280
2017-08-20T07:41:35.827Z,308
2017-08-20T07:42:35.869Z,240
2017-08-20T07:43:35.911Z,196
2017-08-20T07:44:35.667Z,184
2017-08-20T07:45:36.010Z,216
2017-08-20T07:46:35.772Z,232
2017-08-20T07:47:35.832Z,260
2017-08-20T07:48:36.194Z,288
2017-08-20T07:49:36.240Z,352
2017-08-20T07:50:36.300Z,436
2017-08-20T07:51:36.359Z,508
2017-08-20T07:52:36.421Z,484
2017-08-20T07:53:36.465Z,472
2017-08-20T07:54:36.528Z,432
2017-08-20T07:55:36.582Z,388
2017-08-20T07:56:36.623Z,348
2017-08-20T07:57:36.706Z,364
2017-08-20T07:58:36.756Z,400
2017-08-20T07:59:36.799Z,384
2017-08-20T08:00:36.545Z,360
2017-08-20T08:01:36.913Z,344
2017-08-20T08:02:36.665Z,332
2017-08-20T08:03:36.720Z,356
2017-08-20T08:04:36.777Z,376
2017-08-20T08:05:36.820Z,400
2017-08-20T08:06:36.578Z,448
2017-08-20T08:07:36.635Z,448
2017-08-20T08:08:36.986Z,384
2017-08-20T08:09:36.750Z,400
2017-08-20T08:10:37.410Z,420
2017-08-20T08:11:37.469Z,528
2017-08-20T08:12:37.517Z,596
2017-08-20T08:13:37.567Z,540
2017-08-20T08:14:37.631Z,472
2017-08-20T08:15:37.384Z,608
2017-08-20T08:16:37.759Z,648
2017-08-20T08:17:37.804Z,672
2017-08-20T08:18:37.850Z,612
2017-08-20T08:19:37.910Z,552
2017-08-20T08:20:37.973Z,612
2017-08-20T08:21:37.422Z,748
2017-08-20T08:22:38.091Z,776
2017-08-20T08:23:37.831Z,628
2017-08-20T08:24:37.890Z,560
2017-08-20T08:25:38.250Z,540
2017-08-20T08:26:38.291Z,604
2017-08-20T08:27:38.367Z,660
2017-08-20T08:28:38.113Z,684
2017-08-20T08:29:38.164Z,736
2017-08-20T08:30:38.519Z,748
2017-08-20T08:31:38.584Z,792
2017-08-20T08:32:38.334Z,744
2017-08-20T08:33:38.689Z,804
2017-08-20T08:34:38.737Z,756
2017-08-20T08:35:38.809Z,780
2017-08-20T08:36:38.852Z,816
2017-08-20T08:37:38.910Z,748
2017-08-20T08:38:38.969Z,668
2017-08-20T08:39:38.717Z,596
2017-08-20T08:40:38.783Z,616
2017-08-20T08:41:38.844Z,648
2017-08-20T08:42:38.902Z,632
2017-08-20T08:43:38.958Z,576
2017-08-20T08:44:39.310Z,632
2017-08-20T08:45:39.363Z,664
2017-08-20T08:46:39.117Z,836
2017-08-20T08:47:39.476Z,692
2017-08-20T08:48:39.528Z,828
2017-08-20T08:49:39.279Z,772
2017-08-20T08:50:39.640Z,788
2017-08-20T08:51:39.688Z,496
2017-08-20T08:52:39.742Z,516
2017-08-20T08:53:39.818Z,480
2017-08-20T08:54:39.860Z,332
2017-08-20T08:55:39.923Z,232
2017-08-20T08:56:39.979Z,220
2017-08-20T08:57:40.027Z,228
2017-08-20T08:58:40.099Z,228
2017-08-20T08:59:39.850Z,244
2017-08-20T09:00:40.205Z,260
2017-08-20T09:01:40.256Z,244
2017-08-20T09:02:40.007Z,208
2017-08-20T09:03:40.363Z,208
2017-08-20T09:04:40.112Z,228
2017-08-20T09:05:40.478Z,232
2017-08-20T09:06:40.534Z,256
2017-08-20T09:07:40.592Z,268
2017-08-20T09:08:40.638Z,264
2017-08-20T09:09:40.398Z,232
2017-08-20T09:10:40.755Z,220
2017-08-20T09:11:40.816Z,244
2017-08-20T09:12:40.568Z,284
2017-08-20T09:13:40.924Z,328
2017-08-20T09:14:40.988Z,380
2017-08-20T09:15:41.045Z,436
2017-08-20T09:16:41.101Z,480
2017-08-20T09:17:41.154Z,480
2017-08-20T09:18:40.599Z,484
2017-08-20T09:19:41.251Z,532
2017-08-20T09:20:41.339Z,528
2017-08-20T09:21:41.376Z,548
2017-08-20T09:22:41.440Z,592
2017-08-20T09:23:41.176Z,728
2017-08-20T09:24:41.238Z,648
2017-08-20T09:25:41.297Z,948
2017-08-20T09:26:41.341Z,832
2017-08-20T09:27:41.708Z,1060
2017-08-20T09:28:41.769Z,1028
2017-08-20T09:29:41.817Z,1036
2017-08-20T09:30:41.268Z,1020
2017-08-20T09:31:41.932Z,1348
2017-08-20T09:32:41.979Z,1220
2017-08-20T09:33:41.739Z,840
2017-08-20T09:34:41.795Z,740
2017-08-20T09:35:42.146Z,600
2017-08-20T09:36:42.206Z,532
2017-08-20T09:37:42.265Z,464
2017-08-20T09:38:42.325Z,400
2017-08-20T09:39:42.392Z,420
2017-08-20T09:40:42.435Z,424
2017-08-20T09:41:42.488Z,388
2017-08-20T09:42:42.552Z,356
2017-08-20T09:43:42.614Z,296
2017-08-20T09:44:42.666Z,272
2017-08-20T09:45:42.719Z,244
2017-08-20T09:46:42.771Z,216
2017-08-20T09:47:42.526Z,196
2017-08-20T09:48:42.881Z,176
2017-08-20T09:49:42.947Z,168
2017-08-20T09:50:43.003Z,156
2017-08-20T09:51:43.048Z,148
2017-08-20T09:52:43.108Z,128
2017-08-20T09:53:43.178Z,108
2017-08-20T09:54:43.212Z,92
2017-08-20T09:55:43.277Z,92
2017-08-20T09:56:43.020Z,104
2017-08-20T09:57:43.391Z,104
2017-08-20T09:58:43.144Z,96
2017-08-20T09:59:43.489Z,96
2017-08-20T10:00:43.555Z,96
2017-08-20T10:01:43.603Z,104
2017-08-20T10:02:43.362Z,112
2017-08-20T10:03:43.431Z,120
2017-08-20T10:04:43.777Z,124
2017-08-20T10:05:43.826Z,120
2017-08-20T10:06:43.586Z,132
2017-08-20T10:07:43.646Z,144
2017-08-20T10:08:43.404Z,160
2017-08-20T10:09:43.450Z,184
2017-08-20T10:10:44.115Z,204
2017-08-20T10:11:43.869Z,236
2017-08-20T10:12:43.608Z,260
2017-08-20T10:13:44.273Z,272
2017-08-20T10:14:44.343Z,296
2017-08-20T10:15:44.087Z,304
2017-08-20T10:16:44.436Z,332
2017-08-20T10:17:44.509Z,376
2017-08-20T10:18:44.554Z,460
2017-08-20T10:19:44.609Z,552
2017-08-20T10:20:44.369Z,692
2017-08-20T10:21:44.720Z,1432
2017-08-20T10:22:44.789Z,1504
2017-08-20T10:23:44.850Z,1336
2017-08-20T10:24:44.593Z,1136
2017-08-20T10:25:44.945Z,1208
2017-08-20T10:26:45.001Z,1152
2017-08-20T10:27:45.090Z,1240
2017-08-20T10:28:45.115Z,808
2017-08-20T10:29:45.168Z,788
2017-08-20T10:30:45.237Z,868
2017-08-20T10:31:44.983Z,928
2017-08-20T10:32:45.045Z,948
2017-08-20T10:33:45.096Z,872
2017-08-20T10:34:45.457Z,940
2017-08-20T10:35:45.513Z,1416
2017-08-20T10:36:45.576Z,1220
2017-08-20T10:37:45.620Z,1536
2017-08-20T10:38:45.380Z,1276
2017-08-20T10:39:45.430Z,1372
2017-08-20T10:40:45.790Z,1040
2017-08-20T10:41:45.550Z,1004
2017-08-20T10:42:45.899Z,764
2017-08-20T10:43:45.647Z,672
2017-08-20T10:44:46.010Z,592
2017-08-20T10:45:45.759Z,624
2017-08-20T10:46:46.122Z,676
2017-08-20T10:47:45.873Z,728
2017-08-20T10:48:46.247Z,800
2017-08-20T10:49:45.989Z,1172
2017-08-20T10:50:46.040Z,836
2017-08-20T10:51:46.098Z,768
2017-08-20T10:52:46.151Z,956
2017-08-20T10:53:46.508Z,672
2017-08-20T10:54:46.570Z,724
2017-08-20T10:55:46.631Z,764
2017-08-20T10:56:46.678Z,680
2017-08-20T10:57:46.731Z,684
2017-08-20T10:58:46.802Z,768
2017-08-20T10:59:46.846Z,760
2017-08-20T11:00:46.910Z,676
2017-08-20T11:01:46.684Z,552
2017-08-20T11:02:46.717Z,748
2017-08-20T11:03:46.769Z,792
2017-08-20T11:04:46.825Z,892
2017-08-20T11:05:47.188Z,984
2017-08-20T11:06:47.242Z,1140
2017-08-20T11:07:47.306Z,972
2017-08-20T11:08:47.052Z,1316
2017-08-20T11:09:47.421Z,1832
2017-08-20T11:10:47.159Z,928
2017-08-20T11:11:47.517Z,976
2017-08-20T11:12:47.585Z,1064
2017-08-20T11:13:47.631Z,1032
2017-08-20T11:14:47.690Z,1360
2017-08-20T11:15:47.462Z,1532
2017-08-20T11:16:47.495Z,1460
2017-08-20T11:17:47.859Z,1200
2017-08-20T11:18:47.918Z,1268
2017-08-20T11:19:47.974Z,1180
2017-08-20T11:20:48.027Z,1516
2017-08-20T11:21:47.779Z,1508
2017-08-20T11:22:48.146Z,1516
2017-08-20T11:23:48.200Z,1604
2017-08-20T11:24:47.950Z,1240
2017-08-20T11:25:48.004Z,1256
2017-08-20T11:26:48.052Z,1256
2017-08-20T11:27:48.413Z,1748
2017-08-20T11:28:48.481Z,924
2017-08-20T11:29:48.543Z,520
2017-08-20T11:30:48.604Z,452
2017-08-20T11:31:48.650Z,560
2017-08-20T11:32:48.404Z,436
2017-08-20T11:33:48.751Z,428
2017-08-20T11:34:48.515Z,504
2017-08-20T11:35:48.870Z,504
2017-08-20T11:36:48.624Z,460
2017-08-20T11:37:48.972Z,496
2017-08-20T11:38:49.029Z,644
2017-08-20T11:39:48.783Z,788
2017-08-20T11:40:49.172Z,660
2017-08-20T11:41:49.211Z,728
2017-08-20T11:42:49.257Z,1088
2017-08-20T11:43:49.326Z,1428
2017-08-20T11:44:49.381Z,1920
2017-08-20T11:45:49.114Z,928
2017-08-20T11:46:49.173Z,992
2017-08-20T11:47:49.535Z,1236
2017-08-20T11:48:49.288Z,1664
2017-08-20T11:49:49.657Z,1124
2017-08-20T11:50:49.697Z,1124
2017-08-20T11:51:49.463Z,984
2017-08-20T11:52:49.807Z,696
2017-08-20T11:53:49.875Z,688
2017-08-20T11:54:49.628Z,664
2017-08-20T11:55:49.983Z,636
2017-08-20T11:56:50.047Z,620
2017-08-20T11:57:50.093Z,696
2017-08-20T11:58:50.196Z,748
2017-08-20T11:59:50.208Z,712
2017-08-20T12:00:50.264Z,680
2017-08-20T12:01:50.026Z,680
2017-08-20T12:02:50.379Z,580
2017-08-20T12:03:50.141Z,456
2017-08-20T12:04:50.491Z,404
2017-08-20T12:05:50.561Z,420
2017-08-20T12:06:50.611Z,484
2017-08-20T12:07:50.655Z,408
2017-08-20T12:08:50.716Z,388
2017-08-20T12:09:50.772Z,380
2017-08-20T12:10:50.818Z,312
2017-08-20T12:11:50.576Z,308
2017-08-20T12:12:50.930Z,340
2017-08-20T12:13:50.683Z,348
2017-08-20T12:14:51.049Z,280
2017-08-20T12:15:51.099Z,240
2017-08-20T12:16:51.153Z,216
2017-08-20T12:17:51.205Z,204
2017-08-20T12:18:51.284Z,208
2017-08-20T12:19:51.014Z,272
2017-08-20T12:20:51.381Z,296
2017-08-20T12:21:51.434Z,288
2017-08-20T12:22:51.185Z,312
2017-08-20T12:23:51.535Z,252
2017-08-20T12:24:51.598Z,260
2017-08-20T12:25:51.656Z,260
2017-08-20T12:26:51.737Z,240
2017-08-20T12:27:51.756Z,284
2017-08-20T12:28:51.830Z,408
2017-08-20T12:29:51.877Z,500
2017-08-20T12:30:51.927Z,480
2017-08-20T12:31:51.987Z,436
2017-08-20T12:32:52.038Z,420
2017-08-20T12:33:52.096Z,360
2017-08-20T12:34:52.151Z,328
2017-08-20T12:35:52.206Z,364
2017-08-20T12:36:51.957Z,316
2017-08-20T12:37:52.313Z,216
2017-08-20T12:38:52.391Z,136
2017-08-20T12:39:52.435Z,144
2017-08-20T12:40:52.494Z,176
2017-08-20T12:41:52.541Z,204
2017-08-20T12:42:52.601Z,192
2017-08-20T12:43:52.649Z,192
2017-08-20T12:44:52.727Z,192
2017-08-20T12:45:52.763Z,176
2017-08-20T12:46:52.815Z,196
2017-08-20T12:47:52.878Z,220
2017-08-20T12:48:52.925Z,300
2017-08-20T12:49:52.986Z,340
2017-08-20T12:50:53.048Z,380
2017-08-20T12:51:53.101Z,360
2017-08-20T12:52:53.157Z,400
2017-08-20T12:53:53.222Z,448
2017-08-20T12:54:53.264Z,480
2017-08-20T12:55:53.320Z,456
2017-08-20T12:56:53.377Z,512
2017-08-20T12:57:52.837Z,568
2017-08-20T12:58:53.500Z,696
2017-08-20T12:59:53.544Z,676
2017-08-20T13:00:53.602Z,564
2017-08-20T13:01:53.668Z,492
2017-08-20T13:02:53.713Z,488
2017-08-20T13:03:53.772Z,528
2017-08-20T13:04:53.827Z,532
2017-08-20T13:05:53.888Z,604
2017-08-20T13:06:53.935Z,700
2017-08-20T13:07:53.982Z,1044
2017-08-20T13:08:54.059Z,1308
2017-08-20T13:09:54.096Z,1348
2017-08-20T13:10:53.864Z,1200
2017-08-20T13:11:54.214Z,1316
2017-08-20T13:12:54.274Z,1268
2017-08-20T13:13:54.327Z,1192
2017-08-20T13:14:54.385Z,1520
2017-08-20T13:15:54.147Z,1492
2017-08-20T13:16:54.193Z,1032
2017-08-20T13:17:54.549Z,1200
2017-08-20T13:18:54.606Z,904
2017-08-20T13:19:54.671Z,908
2017-08-20T13:20:54.726Z,664
2017-08-20T13:21:54.792Z,548
2017-08-20T13:22:54.835Z,496
2017-08-20T13:23:54.901Z,556
2017-08-20T13:24:54.665Z,660
2017-08-20T13:25:54.704Z,580
2017-08-20T13:26:54.761Z,508
2017-08-20T13:27:54.811Z,392
2017-08-20T13:28:54.861Z,296
2017-08-20T13:29:55.235Z,328
2017-08-20T13:30:55.295Z,284
2017-08-20T13:31:55.345Z,292
2017-08-20T13:32:55.390Z,308
2017-08-20T13:33:55.455Z,368
2017-08-20T13:34:55.503Z,408
2017-08-20T13:35:55.261Z,356
2017-08-20T13:36:55.624Z,408
2017-08-20T13:37:55.668Z,460
2017-08-20T13:38:55.723Z,488
2017-08-20T13:39:55.781Z,464
2017-08-20T13:40:55.548Z,484
2017-08-20T13:41:55.904Z,476
2017-08-20T13:42:55.963Z,440
2017-08-20T13:43:55.710Z,396
2017-08-20T13:44:56.063Z,372
2017-08-20T13:45:56.122Z,356
2017-08-20T13:46:56.175Z,368
2017-08-20T13:47:56.239Z,436
2017-08-20T13:48:56.293Z,456
2017-08-20T13:49:56.354Z,436
2017-08-20T13:50:56.411Z,408
2017-08-20T13:51:56.476Z,416
2017-08-20T13:52:56.522Z,488
2017-08-20T13:53:56.584Z,456
2017-08-20T13:54:56.644Z,500
2017-08-20T13:55:56.683Z,492
2017-08-20T13:56:56.748Z,468
2017-08-20T13:57:56.820Z,484
2017-08-20T13:58:56.843Z,484
2017-08-20T13:59:56.911Z,428
2017-08-20T14:00:56.960Z,352
2017-08-20T14:01:56.724Z,328
2017-08-20T14:02:57.074Z,304
2017-08-20T14:03:56.838Z,276
2017-08-20T14:04:56.894Z,228
2017-08-20T14:05:57.243Z,312
2017-08-20T14:06:57.294Z,360